Portsmouth, OH (45662)

11:30 PM EST on December 17, 2014 (GMT -0500)
Thomas Hollow | Change Station
CLOSE
Current Station
Personal Weather Station
Location: Lucasville, OH
Elevation: 719 ft
Nearby Weather Stations

Elev 719 ft 38.89 °N, 82.97 °W | Updated 13 seconds ago

Overcast
Overcast
31.5 °F
Feels Like 32 °F
N
0.0
Wind Variable Wind from NNW
Gusts 4.0 mph

Today
High -- | Low -- °F
--% Chance of Precip.
Yesterday
High -- | Low -- °F
Precip. -- in
7:44 AM 5:11 PM
Waning Crescent, 17% visible
Pressure 30.25 in
Visibility 10.0 miles
Clouds Overcast 2300 ft
Windchill 32 °F
Dew Point -5 °F
Humidity 20%
Rainfall 0.00 in
Snow Depth Not available.
UV 0 out of 12
Pollen .10 out of 12
Air Quality Not available.
Flu Activity Not available.
METAR KHTS 180351Z 31003KT 10SM OVC023 00/M04 A3023 RMK AO2 SLP242 T00001044

More Conditions Fewer Conditions

Pressure 30.25 in
Visibility 10.0 miles
Clouds Overcast 2300 ft
Windchill 32 °F
Dew Point -5 °F
Humidity 20%
Rainfall 0.00 in
Snow Depth Not available.
UV 0 out of 12
Pollen .10 out of 12
Air Quality Not available.
Flu Activity Not available.
METAR KHTS 180351Z 31003KT 10SM OVC023 00/M04 A3023 RMK AO2 SLP242 T00001044

More Conditions Fewer Conditions

10-Day Weather Forecast

Almanac

Astronomy

Dec. 17, 2014 Rise Set
Actual Time
Civil Twilight
Nautical Twilight
Astronomical Twilight
Moon
Length of Visible Light
Length of Day
Tomorrow will be .
, % of the Moon is Illuminated

Today's Extremes

State Highs State Lows

Community

WunderPhotos

Upload Photos

1,778,881 photos uploaded!

WunderBlogs® & News

Nearby

Air Quality

  Air Quality AQ Index Pollutant
Not available.

Snow Depth

Station Depth Elevation

Earthquake Activity

City Distance Mag. Time & Date
Minimum magnitude displayed is 2.5.

Coastal Water Temperatures

Place Temperature

Nearby Weather Stations